createdAt,value
2017-09-28T00:02:11.888Z,90.50
2017-09-28T00:04:39.560Z,90.70
2017-09-28T00:07:07.856Z,91.30
2017-09-28T00:09:35.430Z,92.20
2017-09-28T00:12:03.381Z,92.70
2017-09-28T00:14:31.815Z,92.40
2017-09-28T00:16:59.524Z,92.40
2017-09-28T00:19:27.064Z,92.20
2017-09-28T00:21:55.328Z,92.90
2017-09-28T00:24:22.917Z,92.10
2017-09-28T00:26:50.972Z,92.00
2017-09-28T00:29:19.239Z,93.00
2017-09-28T00:31:46.968Z,92.50
2017-09-28T00:34:14.553Z,92.40
2017-09-28T00:36:42.056Z,92.40
2017-09-28T00:39:09.624Z,91.70
2017-09-28T00:41:37.166Z,91.30
2017-09-28T00:44:05.439Z,91.90
2017-09-28T00:46:33.005Z,91.30
2017-09-28T00:49:00.975Z,91.00
2017-09-28T00:51:28.732Z,91.10
2017-09-28T00:53:57.052Z,91.90
2017-09-28T00:56:24.573Z,91.00
2017-09-28T00:58:52.198Z,90.90
2017-09-28T01:01:19.762Z,90.60
2017-09-28T01:03:47.385Z,90.40
2017-09-28T01:06:14.896Z,90.20
2017-09-28T01:08:43.404Z,90.80
2017-09-28T01:11:11.877Z,90.40
2017-09-28T01:13:39.393Z,90.80
2017-09-28T01:16:07.127Z,91.30
2017-09-28T01:18:34.636Z,91.20
2017-09-28T01:21:02.923Z,92.10
2017-09-28T01:23:30.489Z,91.80
2017-09-28T01:25:58.005Z,91.90
2017-09-28T01:28:25.856Z,92.80
2017-09-28T01:30:53.373Z,93.00
2017-09-28T01:33:20.880Z,92.40
2017-09-28T01:35:48.483Z,92.20
2017-09-28T01:38:16.772Z,93.50
2017-09-28T01:40:44.332Z,94.20
2017-09-28T01:43:12.320Z,93.20
2017-09-28T01:45:39.877Z,93.30
2017-09-28T01:48:07.448Z,94.00
2017-09-28T01:50:34.968Z,95.00
2017-09-28T01:53:02.609Z,95.10
2017-09-28T01:55:30.136Z,95.70
2017-09-28T01:57:58.251Z,95.70
2017-09-28T02:00:26.584Z,97.50
2017-09-28T02:02:54.092Z,99.90
2017-09-28T02:05:22.528Z,99.00
2017-09-28T02:07:50.106Z,97.80
2017-09-28T02:10:18.388Z,96.80
2017-09-28T02:12:46.321Z,95.40
2017-09-28T02:15:13.881Z,93.80
2017-09-28T02:17:41.581Z,94.60
2017-09-28T02:20:09.108Z,94.60
2017-09-28T02:22:36.641Z,95.20
2017-09-28T02:25:04.165Z,95.70
2017-09-28T02:27:32.472Z,97.40
2017-09-28T02:29:59.981Z,97.50
2017-09-28T02:32:27.620Z,97.70
2017-09-28T02:34:55.120Z,98.00
2017-09-28T02:37:23.454Z,98.10
2017-09-28T02:39:50.968Z,97.90
2017-09-28T02:42:18.926Z,99.80
2017-09-28T02:44:47.564Z,99.90
2017-09-28T02:47:15.340Z,99.60
2017-09-28T02:49:42.963Z,99.90
2017-09-28T02:52:11.243Z,99.90
2017-09-28T02:54:38.784Z,99.90
2017-09-28T02:57:06.288Z,99.60
2017-09-28T02:59:33.794Z,98.90
2017-09-28T03:02:01.708Z,98.60
2017-09-28T03:04:29.232Z,97.70
2017-09-28T03:06:56.956Z,95.10
2017-09-28T03:09:24.465Z,94.90
2017-09-28T03:11:51.977Z,98.00
2017-09-28T03:14:20.286Z,97.30
2017-09-28T03:16:47.816Z,97.40
2017-09-28T03:19:15.336Z,96.70
2017-09-28T03:21:42.883Z,95.80
2017-09-28T03:24:10.379Z,96.20
2017-09-28T03:26:38.648Z,97.20
2017-09-28T03:29:06.176Z,97.80
2017-09-28T03:31:34.107Z,97.50
2017-09-28T03:34:01.618Z,97.40
2017-09-28T03:36:29.132Z,97.20
2017-09-28T03:38:57.427Z,97.90
2017-09-28T03:41:24.928Z,95.10
2017-09-28T03:43:52.660Z,95.70
2017-09-28T03:46:20.162Z,96.90
2017-09-28T03:48:47.677Z,96.50
2017-09-28T03:51:15.238Z,95.90
2017-09-28T03:53:43.812Z,95.70
2017-09-28T03:56:11.340Z,96.40
2017-09-28T03:58:39.646Z,98.10
2017-09-28T04:01:07.239Z,96.60
2017-09-28T04:03:34.785Z,96.70
2017-09-28T04:06:02.295Z,97.20
2017-09-28T04:08:30.241Z,97.00
2017-09-28T04:10:58.612Z,97.20
2017-09-28T04:13:26.167Z,97.20
2017-09-28T04:15:53.720Z,97.20
2017-09-28T04:18:21.227Z,97.50
2017-09-28T04:20:48.733Z,98.10
2017-09-28T04:23:16.275Z,98.30
2017-09-28T04:25:43.815Z,98.00
2017-09-28T04:28:11.362Z,98.00
2017-09-28T04:30:38.932Z,97.40
2017-09-28T04:33:06.833Z,97.40
2017-09-28T04:35:34.380Z,97.80
2017-09-28T04:38:01.883Z,97.80
2017-09-28T04:40:29.765Z,98.80
2017-09-28T04:42:58.072Z,99.50
2017-09-28T04:45:25.581Z,98.70
2017-09-28T04:47:53.125Z,98.10
2017-09-28T04:50:22.035Z,98.50
2017-09-28T04:52:49.549Z,98.60
2017-09-28T04:55:17.160Z,98.90
2017-09-28T04:57:44.705Z,98.90
2017-09-28T05:00:12.223Z,98.30
2017-09-28T05:02:39.734Z,98.00
2017-09-28T05:05:07.672Z,97.50
2017-09-28T05:07:35.213Z,97.40
2017-09-28T05:10:02.768Z,97.70
2017-09-28T05:12:31.073Z,97.50
2017-09-28T05:14:58.568Z,97.20
2017-09-28T05:17:26.509Z,97.50
2017-09-28T05:19:54.808Z,98.30
2017-09-28T05:22:22.753Z,97.50
2017-09-28T05:24:50.258Z,97.40
2017-09-28T05:27:17.880Z,97.30
2017-09-28T05:29:45.488Z,97.00
2017-09-28T05:32:13.830Z,96.60
2017-09-28T05:34:41.345Z,97.10
2017-09-28T05:37:08.872Z,96.60
2017-09-28T05:39:37.179Z,96.60
2017-09-28T05:42:04.739Z,96.60
2017-09-28T05:44:33.041Z,96.40
2017-09-28T05:47:01.862Z,97.10
2017-09-28T05:49:29.425Z,96.70
2017-09-28T05:51:57.145Z,96.40
2017-09-28T05:54:24.640Z,96.20
2017-09-28T05:56:52.200Z,95.00
2017-09-28T05:59:20.792Z,95.30
2017-09-28T06:01:48.305Z,95.20
2017-09-28T06:04:15.993Z,94.00
2017-09-28T06:06:43.604Z,93.30
2017-09-28T06:09:11.160Z,92.20
2017-09-28T06:11:38.659Z,90.40
2017-09-28T06:14:06.223Z,85.90
2017-09-28T06:16:33.736Z,82.70
2017-09-28T06:19:02.041Z,80.90
2017-09-28T06:21:29.556Z,78.40
2017-09-28T06:23:57.876Z,75.00
2017-09-28T06:26:25.399Z,72.10
2017-09-28T06:28:53.728Z,72.40
2017-09-28T06:31:21.237Z,74.80
2017-09-28T06:33:49.708Z,77.10
2017-09-28T06:36:17.680Z,77.00
2017-09-28T06:38:45.193Z,76.40
2017-09-28T06:41:13.181Z,78.10
2017-09-28T06:43:41.133Z,79.20
2017-09-28T06:46:09.028Z,79.30
2017-09-28T06:48:36.537Z,79.90
2017-09-28T06:51:04.076Z,79.90
2017-09-28T06:53:31.604Z,78.90
2017-09-28T06:55:59.730Z,77.80
2017-09-28T06:58:28.800Z,77.30
2017-09-28T07:00:57.197Z,77.10
2017-09-28T07:03:24.740Z,77.20
2017-09-28T07:05:52.290Z,76.80
2017-09-28T07:08:20.789Z,76.50
2017-09-28T07:10:48.374Z,74.90
2017-09-28T07:13:15.942Z,75.50
2017-09-28T07:15:44.274Z,74.70
2017-09-28T07:18:11.846Z,73.90
2017-09-28T07:20:39.401Z,72.50
2017-09-28T07:23:06.915Z,70.30
2017-09-28T07:25:34.459Z,69.20
2017-09-28T07:28:02.107Z,69.70
2017-09-28T07:30:30.023Z,71.40
2017-09-28T07:32:57.693Z,72.80
2017-09-28T07:35:25.407Z,73.30
2017-09-28T07:37:53.035Z,71.90
2017-09-28T07:40:21.018Z,71.70
2017-09-28T07:42:48.983Z,69.20
2017-09-28T07:45:17.292Z,66.20
2017-09-28T07:47:45.611Z,64.00
2017-09-28T07:50:13.277Z,61.70
2017-09-28T07:52:41.219Z,61.30
2017-09-28T07:55:08.784Z,58.40
2017-09-28T07:57:36.298Z,56.60
2017-09-28T08:00:03.891Z,57.80
2017-09-28T08:02:32.164Z,59.60
2017-09-28T08:04:59.730Z,57.30
2017-09-28T08:07:27.273Z,56.40
2017-09-28T08:09:55.558Z,57.80
2017-09-28T08:12:23.613Z,57.50
2017-09-28T08:14:51.330Z,56.30
2017-09-28T08:17:18.857Z,55.10
2017-09-28T08:19:46.406Z,53.70
2017-09-28T08:22:14.795Z,52.80
2017-09-28T08:24:43.113Z,52.90
2017-09-28T08:27:10.638Z,52.70
2017-09-28T08:29:38.193Z,52.60
2017-09-28T08:32:05.745Z,51.40
2017-09-28T08:34:33.689Z,52.50
2017-09-28T08:37:02.124Z,51.70
2017-09-28T08:39:30.429Z,51.50
2017-09-28T08:41:58.013Z,51.30
2017-09-28T08:44:26.412Z,50.40
2017-09-28T08:46:54.001Z,50.50
2017-09-28T08:49:21.541Z,52.70
2017-09-28T08:51:49.076Z,51.50
2017-09-28T08:54:17.003Z,50.90
2017-09-28T08:56:44.958Z,49.40
2017-09-28T08:59:12.861Z,51.10
2017-09-28T09:01:40.414Z,49.50
2017-09-28T09:04:08.048Z,48.60
2017-09-28T09:06:35.611Z,46.60
2017-09-28T09:09:03.152Z,46.70
2017-09-28T09:11:31.114Z,49.30
2017-09-28T09:13:58.944Z,50.00
2017-09-28T09:16:27.610Z,48.90
2017-09-28T09:18:55.177Z,47.50
2017-09-28T09:21:23.473Z,47.00
2017-09-28T09:23:51.059Z,45.40
2017-09-28T09:26:18.582Z,45.20
2017-09-28T09:28:46.524Z,43.40
2017-09-28T09:31:14.590Z,42.90
2017-09-28T09:33:42.080Z,42.40
2017-09-28T09:36:10.394Z,42.30
2017-09-28T09:38:37.919Z,40.40
2017-09-28T09:41:05.473Z,40.10
2017-09-28T09:43:33.844Z,40.40
2017-09-28T09:46:01.759Z,40.80
2017-09-28T09:48:29.675Z,40.80
2017-09-28T09:50:57.624Z,43.30
2017-09-28T09:53:26.276Z,43.90
2017-09-28T09:55:55.372Z,46.10
2017-09-28T09:58:23.705Z,47.10
2017-09-28T10:00:52.389Z,48.40
2017-09-28T10:03:21.049Z,49.70
2017-09-28T10:05:49.038Z,52.00
2017-09-28T10:08:21.352Z,52.30
2017-09-28T10:10:55.267Z,51.70
2017-09-28T10:13:26.008Z,51.90
2017-09-28T10:15:55.820Z,50.80
2017-09-28T10:18:23.942Z,47.50
2017-09-28T10:20:52.244Z,44.50
2017-09-28T10:23:20.576Z,42.20
2017-09-28T10:25:48.507Z,40.50
2017-09-28T10:30:46.502Z,36.80
2017-09-28T10:33:14.824Z,37.10
2017-09-28T10:35:42.787Z,36.50
2017-09-28T10:38:11.476Z,36.30
2017-09-28T10:40:39.765Z,36.30
2017-09-28T10:43:07.724Z,36.40
2017-09-28T10:45:35.272Z,38.20
2017-09-28T10:48:02.798Z,39.70
2017-09-28T10:50:30.766Z,40.80
2017-09-28T10:52:59.065Z,41.90
2017-09-28T10:55:26.697Z,42.90
2017-09-28T10:57:55.021Z,41.80
2017-09-28T11:00:23.324Z,41.60
2017-09-28T11:02:50.905Z,38.90
2017-09-28T11:05:19.037Z,39.50
2017-09-28T11:07:47.317Z,39.60
2017-09-28T11:10:15.070Z,41.40
2017-09-28T11:12:42.596Z,41.70
2017-09-28T11:15:10.503Z,41.10
2017-09-28T11:17:38.453Z,41.30
2017-09-28T11:20:05.982Z,40.90
2017-09-28T11:22:33.535Z,39.90
2017-09-28T11:25:01.855Z,39.90
2017-09-28T11:27:29.763Z,40.20
2017-09-28T11:29:57.325Z,40.60
2017-09-28T11:32:25.271Z,39.90
2017-09-28T11:34:52.863Z,39.90
2017-09-28T11:37:21.265Z,39.60
2017-09-28T11:39:49.565Z,39.20
2017-09-28T11:42:17.851Z,39.20
2017-09-28T11:44:45.404Z,38.40
2017-09-28T11:47:12.933Z,38.10
2017-09-28T11:49:40.857Z,36.70
2017-09-28T11:52:08.804Z,37.60
2017-09-28T11:54:37.660Z,37.20
2017-09-28T11:57:05.214Z,38.60
2017-09-28T11:59:34.203Z,38.00
2017-09-28T12:02:02.138Z,38.30
2017-09-28T12:04:30.929Z,38.40
2017-09-28T12:06:58.836Z,37.70
2017-09-28T12:09:27.184Z,36.50
2017-09-28T12:11:55.718Z,36.20
2017-09-28T12:14:23.432Z,34.80
2017-09-28T12:16:51.034Z,33.60
2017-09-28T12:19:20.067Z,33.10
2017-09-28T12:21:47.965Z,32.40
2017-09-28T12:24:16.673Z,31.80
2017-09-28T12:26:45.993Z,31.50
2017-09-28T12:29:13.924Z,31.10
2017-09-28T12:34:10.811Z,35.00
2017-09-28T12:36:39.470Z,36.30
2017-09-28T12:41:36.306Z,35.60
2017-09-28T12:44:03.840Z,36.40
2017-09-28T12:49:01.402Z,36.80
2017-09-28T12:51:29.330Z,37.30
2017-09-28T12:53:57.235Z,37.40
2017-09-28T12:56:25.521Z,36.60
2017-09-28T12:58:53.476Z,35.30
2017-09-28T13:01:21.483Z,33.90
2017-09-28T13:03:49.414Z,32.40
2017-09-28T13:06:17.316Z,32.00
2017-09-28T13:08:45.650Z,30.10
2017-09-28T13:11:13.941Z,31.40
2017-09-28T13:13:42.846Z,31.10
2017-09-28T13:16:11.167Z,31.90
2017-09-28T13:18:39.824Z,33.40
2017-09-28T13:21:07.956Z,34.50
2017-09-28T13:23:35.930Z,35.80
2017-09-28T13:26:04.218Z,37.50
2017-09-28T13:31:01.452Z,38.10
2017-09-28T13:33:29.403Z,38.80
2017-09-28T13:35:57.707Z,37.50
2017-09-28T13:38:26.031Z,36.80
2017-09-28T13:40:55.274Z,36.40
2017-09-28T13:43:22.790Z,35.40
2017-09-28T13:45:51.816Z,36.10
2017-09-28T13:48:19.363Z,36.80
2017-09-28T13:50:47.640Z,37.40
2017-09-28T13:53:15.603Z,38.20
2017-09-28T13:55:43.124Z,39.60
2017-09-28T13:58:11.517Z,43.80
2017-09-28T14:00:39.064Z,44.70
2017-09-28T14:05:36.065Z,42.40
2017-09-28T14:08:04.337Z,43.10
2017-09-28T14:10:31.935Z,42.20
2017-09-28T14:12:59.476Z,42.40
2017-09-28T14:15:28.185Z,42.40
2017-09-28T14:17:56.534Z,43.80
2017-09-28T14:20:24.454Z,44.00
2017-09-28T14:22:52.774Z,43.80
2017-09-28T14:25:21.066Z,42.30
2017-09-28T14:27:49.022Z,42.90
2017-09-28T14:30:16.967Z,41.70
2017-09-28T14:32:45.274Z,42.20
2017-09-28T14:35:14.162Z,41.70
2017-09-28T14:37:42.477Z,38.70
2017-09-28T14:42:39.488Z,37.90
2017-09-28T14:45:07.113Z,38.90
2017-09-28T14:47:34.556Z,39.40
2017-09-28T14:50:02.984Z,39.90
2017-09-28T14:52:30.904Z,39.50
2017-09-28T14:54:58.476Z,40.50
2017-09-28T14:57:26.593Z,39.80
2017-09-28T14:59:54.261Z,39.60
2017-09-28T15:02:22.528Z,41.50
2017-09-28T15:04:50.041Z,40.50
2017-09-28T15:07:18.604Z,42.40
2017-09-28T15:09:46.512Z,39.90
2017-09-28T15:12:14.018Z,43.00
2017-09-28T15:14:41.976Z,42.80
2017-09-28T15:17:09.640Z,44.90
2017-09-28T15:19:37.912Z,46.40
2017-09-28T15:22:05.835Z,46.90
2017-09-28T15:24:34.340Z,48.90
2017-09-28T15:27:02.025Z,49.00
2017-09-28T15:29:29.533Z,48.00
2017-09-28T15:31:57.817Z,47.50
2017-09-28T15:34:26.145Z,46.50
2017-09-28T15:36:53.712Z,46.00
2017-09-28T15:39:21.648Z,44.90
2017-09-28T15:41:49.246Z,42.50
2017-09-28T15:44:17.332Z,41.20
2017-09-28T15:46:44.873Z,41.10
2017-09-28T15:49:12.424Z,41.70
2017-09-28T15:51:39.938Z,42.80
2017-09-28T15:54:07.999Z,40.90
2017-09-28T15:56:35.948Z,39.70
2017-09-28T15:59:03.853Z,40.70
2017-09-28T16:01:31.778Z,40.20
2017-09-28T16:03:59.347Z,44.00
2017-09-28T16:06:27.976Z,44.40
2017-09-28T16:08:55.514Z,47.10
2017-09-28T16:11:23.828Z,47.70
2017-09-28T16:13:51.733Z,49.10
2017-09-28T16:16:19.293Z,50.20
2017-09-28T16:18:47.568Z,50.70
2017-09-28T16:21:15.468Z,52.00
2017-09-28T16:23:43.005Z,53.60
2017-09-28T16:26:11.286Z,54.00
2017-09-28T16:28:39.050Z,56.30
2017-09-28T16:31:07.753Z,56.60
2017-09-28T16:33:35.280Z,58.20
2017-09-28T16:36:02.816Z,60.70
2017-09-28T16:38:31.128Z,61.40
2017-09-28T16:40:59.822Z,62.70
2017-09-28T16:45:56.648Z,64.30
2017-09-28T16:48:24.713Z,64.80
2017-09-28T16:50:52.527Z,65.00
2017-09-28T16:53:20.467Z,65.70
2017-09-28T16:55:48.112Z,65.90
2017-09-28T16:58:16.427Z,66.00
2017-09-28T17:00:44.753Z,66.40
2017-09-28T17:03:12.665Z,66.60
2017-09-28T17:05:40.950Z,70.10
2017-09-28T17:08:08.495Z,69.50
2017-09-28T17:10:36.012Z,70.50
2017-09-28T17:13:03.740Z,71.00
2017-09-28T17:15:32.250Z,72.40
2017-09-28T17:18:00.209Z,72.30
2017-09-28T17:20:27.722Z,73.00
2017-09-28T17:22:56.061Z,73.50
2017-09-28T17:25:24.098Z,74.20
2017-09-28T17:27:51.640Z,74.20
2017-09-28T17:30:19.939Z,73.50
2017-09-28T17:32:47.476Z,73.60
2017-09-28T17:35:16.257Z,74.30
2017-09-28T17:37:43.792Z,73.20
2017-09-28T17:40:11.349Z,73.90
2017-09-28T17:42:39.246Z,74.00
2017-09-28T17:45:06.748Z,73.60
2017-09-28T17:47:34.299Z,72.50
2017-09-28T17:50:01.982Z,72.10
2017-09-28T17:52:29.909Z,71.70
2017-09-28T17:54:57.413Z,71.40
2017-09-28T17:57:25.342Z,71.50
2017-09-28T17:59:52.848Z,71.30
2017-09-28T18:02:20.905Z,71.20
2017-09-28T18:04:48.416Z,70.70
2017-09-28T18:07:16.731Z,71.60
2017-09-28T18:09:44.240Z,70.60
2017-09-28T18:12:12.181Z,70.10
2017-09-28T18:14:39.689Z,71.80
2017-09-28T18:17:07.986Z,75.40
2017-09-28T18:19:35.501Z,76.20
2017-09-28T18:22:03.040Z,76.50
2017-09-28T18:24:30.599Z,77.30
2017-09-28T18:26:58.760Z,76.80
2017-09-28T18:29:26.343Z,77.20
2017-09-28T18:31:54.653Z,77.20
2017-09-28T18:34:22.229Z,77.40
2017-09-28T18:36:49.745Z,77.50
2017-09-28T18:39:17.355Z,76.90
2017-09-28T18:41:44.884Z,77.90
2017-09-28T18:44:12.425Z,77.40
2017-09-28T18:46:40.342Z,77.20
2017-09-28T18:49:08.273Z,77.70
2017-09-28T18:51:36.176Z,78.70
2017-09-28T18:54:03.749Z,78.90
2017-09-28T18:56:31.322Z,79.80
2017-09-28T18:58:59.226Z,80.80
2017-09-28T19:01:27.501Z,80.90
2017-09-28T19:03:55.471Z,82.10
2017-09-28T19:06:23.077Z,81.30
2017-09-28T19:08:50.998Z,81.20
2017-09-28T19:11:19.129Z,81.30
2017-09-28T19:13:48.200Z,80.20
2017-09-28T19:16:15.713Z,80.60
2017-09-28T19:18:44.022Z,81.20
2017-09-28T19:21:12.354Z,82.10
2017-09-28T19:23:41.007Z,82.10
2017-09-28T19:26:08.532Z,82.30
2017-09-28T19:33:33.876Z,80.00
2017-09-28T19:36:01.421Z,80.30
2017-09-28T19:38:29.361Z,79.70
2017-09-28T19:40:56.868Z,79.50
2017-09-28T19:43:24.385Z,79.60
2017-09-28T19:45:52.693Z,80.20
2017-09-28T19:48:20.242Z,80.40
2017-09-28T19:50:48.515Z,81.20
2017-09-28T19:53:16.085Z,80.40
2017-09-28T19:55:44.378Z,80.50
2017-09-28T19:58:12.299Z,80.70
2017-09-28T20:00:39.854Z,81.00
2017-09-28T20:03:07.394Z,81.70
2017-09-28T20:05:34.950Z,82.00
2017-09-28T20:08:02.577Z,82.30
2017-09-28T20:10:30.493Z,82.30
2017-09-28T20:12:58.018Z,82.90
2017-09-28T20:15:25.564Z,83.40
2017-09-28T20:17:53.108Z,83.20
2017-09-28T20:20:21.113Z,83.10
2017-09-28T20:22:48.628Z,82.80
2017-09-28T20:25:17.273Z,83.50
2017-09-28T20:27:44.829Z,85.20
2017-09-28T20:30:12.737Z,86.50
2017-09-28T20:32:40.369Z,87.50
2017-09-28T20:35:07.924Z,87.80
2017-09-28T20:37:35.437Z,87.80
2017-09-28T20:40:02.965Z,87.80
2017-09-28T20:42:30.496Z,87.70
2017-09-28T20:44:58.405Z,87.80
2017-09-28T20:47:25.962Z,87.30
2017-09-28T20:49:53.516Z,87.40
2017-09-28T20:52:21.957Z,87.30
2017-09-28T20:54:49.497Z,87.30
2017-09-28T20:57:17.082Z,87.00
2017-09-28T20:59:45.360Z,87.00
2017-09-28T21:02:12.867Z,86.90
2017-09-28T21:04:41.231Z,86.20
2017-09-28T21:07:08.739Z,85.60
2017-09-28T21:09:36.296Z,85.40
2017-09-28T21:12:03.800Z,84.70
2017-09-28T21:14:31.489Z,84.80
2017-09-28T21:16:59.415Z,84.00
2017-09-28T21:19:26.929Z,84.50
2017-09-28T21:21:54.466Z,84.40
2017-09-28T21:24:22.746Z,84.60
2017-09-28T21:26:51.429Z,84.40
2017-09-28T21:29:20.113Z,84.00
2017-09-28T21:31:48.391Z,84.60
2017-09-28T21:34:15.924Z,84.00
2017-09-28T21:36:44.165Z,83.80
2017-09-28T21:39:11.753Z,84.30
2017-09-28T21:41:39.286Z,84.10
2017-09-28T21:44:07.583Z,83.80
2017-09-28T21:46:35.140Z,83.80
2017-09-28T21:49:03.428Z,83.50
2017-09-28T21:51:30.932Z,83.70
2017-09-28T21:53:59.286Z,83.70
2017-09-28T21:56:27.672Z,84.00
2017-09-28T21:58:56.700Z,85.00
2017-09-28T22:01:24.206Z,85.00
2017-09-28T22:03:52.916Z,85.20
2017-09-28T22:06:21.181Z,85.20
2017-09-28T22:08:49.465Z,84.50
2017-09-28T22:11:17.768Z,84.00
2017-09-28T22:13:46.045Z,83.30
2017-09-28T22:16:13.615Z,83.20
2017-09-28T22:18:42.261Z,83.00
2017-09-28T22:21:09.798Z,84.30
2017-09-28T22:23:38.075Z,85.60
2017-09-28T22:26:05.642Z,85.60
2017-09-28T22:28:33.570Z,85.00
2017-09-28T22:31:01.497Z,85.00
2017-09-28T22:33:29.048Z,85.00
2017-09-28T22:35:57.373Z,86.40
2017-09-28T22:38:25.279Z,85.60
2017-09-28T22:40:52.966Z,85.60
2017-09-28T22:43:21.268Z,85.70
2017-09-28T22:45:50.126Z,85.30
2017-09-28T22:48:17.698Z,84.80
2017-09-28T22:50:45.604Z,84.90
2017-09-28T22:53:13.164Z,84.90
2017-09-28T22:55:41.448Z,84.90
2017-09-28T22:58:09.101Z,85.10
2017-09-28T23:00:38.114Z,86.30
2017-09-28T23:03:05.649Z,86.70
2017-09-28T23:05:34.088Z,86.90
2017-09-28T23:08:01.641Z,87.00
2017-09-28T23:10:29.915Z,87.20
2017-09-28T23:12:58.413Z,87.20
2017-09-28T23:15:25.940Z,86.30
2017-09-28T23:17:53.446Z,85.90
2017-09-28T23:20:21.008Z,86.00
2017-09-28T23:22:48.541Z,86.00
2017-09-28T23:25:16.058Z,86.10
2017-09-28T23:27:43.612Z,87.00
2017-09-28T23:30:11.512Z,86.80
2017-09-28T23:32:40.005Z,87.70
2017-09-28T23:35:07.539Z,87.10
2017-09-28T23:37:35.485Z,87.40
2017-09-28T23:40:03.012Z,87.30
2017-09-28T23:42:30.521Z,87.50
2017-09-28T23:44:58.228Z,87.70
2017-09-28T23:47:25.730Z,87.80
2017-09-28T23:49:53.280Z,87.60
2017-09-28T23:52:21.620Z,87.80
2017-09-28T23:54:49.177Z,87.80
2017-09-28T23:57:16.867Z,88.00
2017-09-28T23:59:44.472Z,87.80
